createdAt,value
2018-01-14T00:00:13.927Z,1014.94
2018-01-14T00:01:13.927Z,1014.95
2018-01-14T00:02:13.936Z,1014.94
2018-01-14T00:03:13.958Z,1014.95
2018-01-14T00:04:13.958Z,1014.95
2018-01-14T00:05:13.978Z,1014.95
2018-01-14T00:06:14.030Z,1014.92
2018-01-14T00:07:14.000Z,1014.87
2018-01-14T00:08:14.010Z,1014.88
2018-01-14T00:09:14.009Z,1014.87
2018-01-14T00:10:14.020Z,1014.87
2018-01-14T00:11:14.041Z,1014.88
2018-01-14T00:12:14.051Z,1014.87
2018-01-14T00:13:14.061Z,1014.83
2018-01-14T00:14:14.061Z,1014.82
2018-01-14T00:15:14.089Z,1014.84
2018-01-14T00:16:14.094Z,1014.84
2018-01-14T00:17:14.092Z,1014.81
2018-01-14T00:18:14.104Z,1014.81
2018-01-14T00:19:14.125Z,1014.85
2018-01-14T00:20:14.122Z,1014.8
2018-01-14T00:21:14.144Z,1014.8
2018-01-14T00:22:14.155Z,1014.81
2018-01-14T00:23:14.165Z,1014.81
2018-01-14T00:24:14.177Z,1014.87
2018-01-14T00:25:14.176Z,1014.86
2018-01-14T00:26:14.187Z,1014.85
2018-01-14T00:27:14.207Z,1014.83
2018-01-14T00:28:14.218Z,1014.84
2018-01-14T00:29:14.230Z,1014.78
2018-01-14T00:30:14.240Z,1014.81
2018-01-14T00:31:14.248Z,1014.75
2018-01-14T00:32:14.248Z,1014.75
2018-01-14T00:33:14.270Z,1014.76
2018-01-14T00:34:14.280Z,1014.69
2018-01-14T00:35:14.279Z,1014.72
2018-01-14T00:36:14.290Z,1014.74
2018-01-14T00:37:14.311Z,1014.72
2018-01-14T00:38:14.310Z,1014.74
2018-01-14T00:39:14.320Z,1014.71
2018-01-14T00:40:14.341Z,1014.69
2018-01-14T00:41:14.345Z,1014.7
2018-01-14T00:42:14.363Z,1014.67
2018-01-14T00:43:14.374Z,1014.7
2018-01-14T00:44:14.377Z,1014.69
2018-01-14T00:45:14.382Z,1014.66
2018-01-14T00:46:14.403Z,1014.65
2018-01-14T00:47:14.415Z,1014.64
2018-01-14T00:48:14.413Z,1014.66
2018-01-14T00:49:14.434Z,1014.63
2018-01-14T00:50:14.444Z,1014.6
2018-01-14T00:51:14.445Z,1014.64
2018-01-14T00:52:14.466Z,1014.65
2018-01-14T00:53:14.475Z,1014.58
2018-01-14T00:54:14.477Z,1014.58
2018-01-14T00:55:14.486Z,1014.59
2018-01-14T00:56:14.495Z,1014.54
2018-01-14T00:57:14.507Z,1014.58
2018-01-14T00:58:14.516Z,1014.55
2018-01-14T00:59:14.527Z,1014.56
2018-01-14T01:00:14.548Z,1014.58
2018-01-14T01:01:14.558Z,1014.56
2018-01-14T01:02:14.558Z,1014.55
2018-01-14T01:03:14.567Z,1014.59
2018-01-14T01:04:14.590Z,1014.5
2018-01-14T01:05:14.588Z,1014.48
2018-01-14T01:06:14.599Z,1014.46
2018-01-14T01:07:14.613Z,1014.5
2018-01-14T01:08:14.619Z,1014.5
2018-01-14T01:09:14.640Z,1014.54
2018-01-14T01:10:14.641Z,1014.55
2018-01-14T01:11:14.659Z,1014.52
2018-01-14T01:12:14.670Z,1014.53
2018-01-14T01:13:14.670Z,1014.54
2018-01-14T01:14:14.691Z,1014.55
2018-01-14T01:15:14.702Z,1014.52
2018-01-14T01:16:14.700Z,1014.52
2018-01-14T01:17:14.716Z,1014.59
2018-01-14T01:18:14.732Z,1014.58
2018-01-14T01:19:14.745Z,1014.56
2018-01-14T01:20:14.742Z,1014.59
2018-01-14T01:21:14.764Z,1014.51
2018-01-14T01:22:14.772Z,1014.56
2018-01-14T01:23:14.782Z,1014.59
2018-01-14T01:24:14.787Z,1014.57
2018-01-14T01:25:14.793Z,1014.54
2018-01-14T01:26:14.803Z,1014.55
2018-01-14T01:27:14.817Z,1014.52
2018-01-14T01:28:14.824Z,1014.54
2018-01-14T01:29:14.844Z,1014.49
2018-01-14T01:30:14.844Z,1014.48
2018-01-14T01:31:14.870Z,1014.5
2018-01-14T01:32:14.876Z,1014.49
2018-01-14T01:33:14.886Z,1014.52
2018-01-14T01:34:14.886Z,1014.48
2018-01-14T01:35:14.907Z,1014.44
2018-01-14T01:36:14.916Z,1014.43
2018-01-14T01:37:14.917Z,1014.42
2018-01-14T01:38:14.938Z,1014.48
2018-01-14T01:39:14.946Z,1014.46
2018-01-14T01:40:14.945Z,1014.49
2018-01-14T01:41:14.966Z,1014.49
2018-01-14T01:42:14.976Z,1014.47
2018-01-14T01:43:14.987Z,1014.48
2018-01-14T01:44:15.000Z,1014.49
2018-01-14T01:45:14.997Z,1014.44
2018-01-14T01:46:15.018Z,1014.45
2018-01-14T01:47:15.028Z,1014.45
2018-01-14T01:48:15.031Z,1014.48
2018-01-14T01:49:15.049Z,1014.48
2018-01-14T01:50:15.048Z,1014.43
2018-01-14T01:51:15.074Z,1014.39
2018-01-14T01:52:15.069Z,1014.43
2018-01-14T01:53:15.078Z,1014.45
2018-01-14T01:54:15.089Z,1014.38
2018-01-14T01:55:15.109Z,1014.41
2018-01-14T01:56:15.119Z,1014.39
2018-01-14T01:57:15.131Z,1014.39
2018-01-14T01:58:15.134Z,1014.4
2018-01-14T01:59:15.140Z,1014.37
2018-01-14T02:00:15.151Z,1014.39
2018-01-14T02:01:15.172Z,1014.36
2018-01-14T02:02:15.180Z,1014.35
2018-01-14T02:03:15.182Z,1014.37
2018-01-14T02:04:15.192Z,1014.36
2018-01-14T02:05:15.212Z,1014.37
2018-01-14T02:06:15.221Z,1014.35
2018-01-14T02:07:15.223Z,1014.37
2018-01-14T02:08:15.242Z,1014.38
2018-01-14T02:09:15.252Z,1014.35
2018-01-14T02:10:15.262Z,1014.31
2018-01-14T02:11:15.264Z,1014.32
2018-01-14T02:12:15.272Z,1014.3
2018-01-14T02:13:15.282Z,1014.3
2018-01-14T02:14:15.305Z,1014.29
2018-01-14T02:15:15.314Z,1014.29
2018-01-14T02:16:15.314Z,1014.33
2018-01-14T02:17:15.323Z,1014.29
2018-01-14T02:18:15.333Z,1014.32
2018-01-14T02:19:15.343Z,1014.33
2018-01-14T02:20:15.365Z,1014.35
2018-01-14T02:21:15.376Z,1014.36
2018-01-14T02:22:15.377Z,1014.4
2018-01-14T02:23:15.385Z,1014.4
2018-01-14T02:24:15.406Z,1014.38
2018-01-14T02:25:15.405Z,1014.37
2018-01-14T02:26:15.427Z,1014.3
2018-01-14T02:27:15.575Z,1014.31
2018-01-14T02:28:15.445Z,1014.32
2018-01-14T02:29:15.450Z,1014.31
2018-01-14T02:30:15.467Z,1014.28
2018-01-14T02:31:15.472Z,1014.23
2018-01-14T02:32:15.476Z,1014.25
2018-01-14T02:33:15.513Z,1014.28
2018-01-14T02:34:15.509Z,1014.24
2018-01-14T02:35:15.517Z,1014.25
2018-01-14T02:36:15.516Z,1014.25
2018-01-14T02:37:15.531Z,1014.24
2018-01-14T02:38:15.537Z,1014.29
2018-01-14T02:39:15.548Z,1014.27
2018-01-14T02:40:15.557Z,1014.24
2018-01-14T02:41:15.577Z,1014.21
2018-01-14T02:42:15.577Z,1014.25
2018-01-14T02:43:15.597Z,1014.2
2018-01-14T02:44:15.598Z,1014.22
2018-01-14T02:45:15.698Z,1014.22
2018-01-14T02:46:15.630Z,1014.25
2018-01-14T02:47:15.641Z,1014.24
2018-01-14T02:48:15.639Z,1014.21
2018-01-14T02:49:15.659Z,1014.26
2018-01-14T02:50:15.669Z,1014.27
2018-01-14T02:51:15.681Z,1014.24
2018-01-14T02:52:15.689Z,1014.22
2018-01-14T02:53:15.701Z,1014.25
2018-01-14T02:54:15.700Z,1014.29
2018-01-14T02:55:15.709Z,1014.24
2018-01-14T02:56:15.719Z,1014.26
2018-01-14T02:57:15.929Z,1014.26
2018-01-14T02:58:15.742Z,1014.23
2018-01-14T02:59:15.760Z,1014.22
2018-01-14T03:00:15.760Z,1014.2
2018-01-14T03:01:15.784Z,1014.16
2018-01-14T03:02:15.829Z,1014.19
2018-01-14T03:03:15.790Z,1014.16
2018-01-14T03:04:15.800Z,1014.17
2018-01-14T03:05:15.809Z,1014.14
2018-01-14T03:06:15.820Z,1014.16
2018-01-14T03:07:15.840Z,1014.15
2018-01-14T03:08:15.851Z,1014.14
2018-01-14T03:09:15.849Z,1014.15
2018-01-14T03:10:15.872Z,1014.14
2018-01-14T03:11:15.881Z,1014.17
2018-01-14T03:12:15.890Z,1014.16
2018-01-14T03:13:15.890Z,1014.14
2018-01-14T03:14:15.910Z,1014.16
2018-01-14T03:15:15.910Z,1014.11
2018-01-14T03:16:15.919Z,1014.16
2018-01-14T03:17:15.941Z,1014.2
2018-01-14T03:18:15.941Z,1014.19
2018-01-14T03:19:15.951Z,1014.17
2018-01-14T03:20:15.960Z,1014.23
2018-01-14T03:21:15.971Z,1014.19
2018-01-14T03:22:15.993Z,1014.2
2018-01-14T03:23:15.990Z,1014.17
2018-01-14T03:24:16.011Z,1014.24
2018-01-14T03:25:16.013Z,1014.18
2018-01-14T03:26:16.020Z,1014.18
2018-01-14T03:27:16.043Z,1014.16
2018-01-14T03:28:16.041Z,1014.19
2018-01-14T03:29:16.052Z,1014.23
2018-01-14T03:30:16.062Z,1014.25
2018-01-14T03:31:16.082Z,1014.27
2018-01-14T03:32:16.081Z,1014.3
2018-01-14T03:33:16.102Z,1014.34
2018-01-14T03:34:16.111Z,1014.32
2018-01-14T03:35:16.125Z,1014.37
2018-01-14T03:36:16.122Z,1014.38
2018-01-14T03:37:16.142Z,1014.37
2018-01-14T03:38:16.153Z,1014.36
2018-01-14T03:39:16.165Z,1014.43
2018-01-14T03:40:16.179Z,1014.38
2018-01-14T03:41:16.184Z,1014.39
2018-01-14T03:42:16.193Z,1014.35
2018-01-14T03:43:16.202Z,1014.39
2018-01-14T03:44:16.201Z,1014.35
2018-01-14T03:45:16.211Z,1014.4
2018-01-14T03:46:16.224Z,1014.4
2018-01-14T03:47:16.232Z,1014.43
2018-01-14T03:48:16.241Z,1014.44
2018-01-14T03:49:16.262Z,1014.46
2018-01-14T03:50:16.273Z,1014.48
2018-01-14T03:51:16.283Z,1014.44
2018-01-14T03:52:16.292Z,1014.45
2018-01-14T03:53:16.291Z,1014.45
2018-01-14T03:54:16.301Z,1014.42
2018-01-14T03:55:16.322Z,1014.44
2018-01-14T03:56:16.331Z,1014.43
2018-01-14T03:57:16.331Z,1014.42
2018-01-14T03:58:16.344Z,1014.44
2018-01-14T03:59:16.361Z,1014.42
2018-01-14T04:00:16.372Z,1014.4
2018-01-14T04:01:16.381Z,1014.41
2018-01-14T04:02:16.381Z,1014.46
2018-01-14T04:03:16.391Z,1014.43
2018-01-14T04:04:16.412Z,1014.44
2018-01-14T04:05:16.421Z,1014.43
2018-01-14T04:06:16.420Z,1014.4
2018-01-14T04:07:16.431Z,1014.38
2018-01-14T04:08:16.441Z,1014.4
2018-01-14T04:09:16.451Z,1014.36
2018-01-14T04:10:16.470Z,1014.35
2018-01-14T04:11:16.482Z,1014.33
2018-01-14T04:12:16.481Z,1014.35
2018-01-14T04:13:16.500Z,1014.36
2018-01-14T04:14:16.500Z,1014.3
2018-01-14T04:15:16.509Z,1014.28
2018-01-14T04:16:16.519Z,1014.28
2018-01-14T04:17:16.530Z,1014.27
2018-01-14T04:18:16.540Z,1014.26
2018-01-14T04:19:16.559Z,1014.25
2018-01-14T04:20:16.561Z,1014.24
2018-01-14T04:21:16.580Z,1014.25
2018-01-14T04:22:16.578Z,1014.24
2018-01-14T04:23:16.642Z,1014.22
2018-01-14T04:24:16.599Z,1014.21
2018-01-14T04:25:16.609Z,1014.18
2018-01-14T04:26:16.629Z,1014.16
2018-01-14T04:27:16.640Z,1014.15
2018-01-14T04:28:16.639Z,1014.21
2018-01-14T04:29:16.662Z,1014.23
2018-01-14T04:30:16.668Z,1014.26
2018-01-14T04:31:16.679Z,1014.22
2018-01-14T04:32:16.706Z,1014.22
2018-01-14T04:33:16.740Z,1014.29
2018-01-14T04:34:16.697Z,1014.31
2018-01-14T04:35:16.706Z,1014.29
2018-01-14T04:36:16.716Z,1014.23
2018-01-14T04:37:16.737Z,1014.25
2018-01-14T04:38:16.747Z,1014.24
2018-01-14T04:39:16.759Z,1014.19
2018-01-14T04:40:16.756Z,1014.21
2018-01-14T04:41:16.776Z,1014.19
2018-01-14T04:42:16.776Z,1014.19
2018-01-14T04:43:16.935Z,1014.18
2018-01-14T04:44:16.797Z,1014.15
2018-01-14T04:45:16.815Z,1014.15
2018-01-14T04:46:16.816Z,1014.25
2018-01-14T04:47:16.825Z,1014.2
2018-01-14T04:48:16.884Z,1014.22
2018-01-14T04:49:16.844Z,1014.14
2018-01-14T04:50:16.863Z,1014.13
2018-01-14T04:51:16.874Z,1014.13
2018-01-14T04:52:16.884Z,1014.15
2018-01-14T04:53:16.884Z,1014.18
2018-01-14T04:54:16.904Z,1014.2
2018-01-14T04:55:16.914Z,1014.22
2018-01-14T04:56:16.926Z,1014.17
2018-01-14T04:57:16.933Z,1014.2
2018-01-14T04:58:16.942Z,1014.19
2018-01-14T04:59:16.953Z,1014.16
2018-01-14T05:00:16.954Z,1014.16
2018-01-14T05:01:16.960Z,1014.1
2018-01-14T05:02:16.987Z,1014.14
2018-01-14T05:03:16.991Z,1014.15
2018-01-14T05:04:16.991Z,1014.1
2018-01-14T05:05:16.999Z,1014.07
2018-01-14T05:06:17.020Z,1014.09
2018-01-14T05:07:17.031Z,1014.06
2018-01-14T05:08:17.030Z,1014.06
2018-01-14T05:09:17.041Z,1014.15
2018-01-14T05:10:17.061Z,1014.26
2018-01-14T05:11:17.109Z,1014.33
2018-01-14T05:12:17.069Z,1014.31
2018-01-14T05:13:17.140Z,1014.25
2018-01-14T05:14:17.092Z,1014.3
2018-01-14T05:15:17.100Z,1014.26
2018-01-14T05:16:17.119Z,1014.22
2018-01-14T05:17:17.129Z,1014.17
2018-01-14T05:18:17.279Z,1014.11
2018-01-14T05:19:17.148Z,1014.1
2018-01-14T05:20:17.147Z,1014.17
2018-01-14T05:21:17.181Z,1014.24
2018-01-14T05:22:17.229Z,1014.2
2018-01-14T05:23:17.188Z,1014.18
2018-01-14T05:24:17.201Z,1014.17
2018-01-14T05:25:17.196Z,1014.19
2018-01-14T05:26:17.206Z,1014.18
2018-01-14T05:27:17.216Z,1014.19
2018-01-14T05:28:17.225Z,1014.18
2018-01-14T05:29:17.247Z,1014.23
2018-01-14T05:30:17.256Z,1014.23
2018-01-14T05:31:17.266Z,1014.25
2018-01-14T05:32:17.278Z,1014.25
2018-01-14T05:33:17.286Z,1014.32
2018-01-14T05:34:17.295Z,1014.39
2018-01-14T05:35:17.293Z,1014.45
2018-01-14T05:36:17.315Z,1014.44
2018-01-14T05:37:17.373Z,1014.39
2018-01-14T05:38:17.381Z,1014.4
2018-01-14T05:39:17.333Z,1014.44
2018-01-14T05:40:17.345Z,1014.44
2018-01-14T05:41:17.363Z,1014.42
2018-01-14T05:42:17.361Z,1014.42
2018-01-14T05:43:17.382Z,1014.37
2018-01-14T05:44:17.391Z,1014.41
2018-01-14T05:45:17.405Z,1014.36
2018-01-14T05:46:17.411Z,1014.34
2018-01-14T05:47:17.421Z,1014.37
2018-01-14T05:48:17.442Z,1014.41
2018-01-14T05:49:17.431Z,1014.41
2018-01-14T05:50:17.450Z,1014.4
2018-01-14T05:51:17.460Z,1014.45
2018-01-14T05:52:17.461Z,1014.45
2018-01-14T05:53:17.478Z,1014.45
2018-01-14T05:54:17.478Z,1014.48
2018-01-14T05:55:17.498Z,1014.44
2018-01-14T05:56:17.496Z,1014.48
2018-01-14T05:57:17.517Z,1014.46
2018-01-14T05:58:17.528Z,1014.43
2018-01-14T05:59:17.526Z,1014.45
2018-01-14T06:00:17.536Z,1014.45
2018-01-14T06:01:17.557Z,1014.43
2018-01-14T06:02:17.554Z,1014.42
2018-01-14T06:03:17.574Z,1014.42
2018-01-14T06:04:17.585Z,1014.41
2018-01-14T06:05:17.595Z,1014.43
2018-01-14T06:06:17.595Z,1014.43
2018-01-14T06:07:17.615Z,1014.39
2018-01-14T06:08:17.660Z,1014.42
2018-01-14T06:09:17.621Z,1014.44
2018-01-14T06:10:17.633Z,1014.41
2018-01-14T06:11:17.640Z,1014.42
2018-01-14T06:12:17.651Z,1014.41
2018-01-14T06:13:17.686Z,1014.39
2018-01-14T06:14:17.669Z,1014.39
2018-01-14T06:15:17.691Z,1014.38
2018-01-14T06:16:17.688Z,1014.35
2018-01-14T06:17:17.708Z,1014.3
2018-01-14T06:18:17.707Z,1014.35
2018-01-14T06:19:17.719Z,1014.3
2018-01-14T06:20:17.727Z,1014.32
2018-01-14T06:21:17.747Z,1014.33
2018-01-14T06:22:17.747Z,1014.37
2018-01-14T06:23:17.757Z,1014.38
2018-01-14T06:24:17.766Z,1014.39
2018-01-14T06:25:17.803Z,1014.33
2018-01-14T06:26:17.785Z,1014.36
2018-01-14T06:27:17.794Z,1014.36
2018-01-14T06:28:17.804Z,1014.34
2018-01-14T06:29:17.822Z,1014.35
2018-01-14T06:30:17.822Z,1014.35
2018-01-14T06:31:17.846Z,1014.35
2018-01-14T06:32:17.841Z,1014.32
2018-01-14T06:33:17.860Z,1014.32
2018-01-14T06:34:17.859Z,1014.3
2018-01-14T06:35:17.879Z,1014.37
2018-01-14T06:36:17.878Z,1014.35
2018-01-14T06:37:17.903Z,1014.39
2018-01-14T06:38:17.898Z,1014.39
2018-01-14T06:39:17.907Z,1014.47
2018-01-14T06:40:17.926Z,1014.43
2018-01-14T06:41:17.926Z,1014.44
2018-01-14T06:42:17.937Z,1014.4
2018-01-14T06:43:17.955Z,1014.44
2018-01-14T06:44:17.954Z,1014.37
2018-01-14T06:45:17.975Z,1014.41
2018-01-14T06:46:17.973Z,1014.44
2018-01-14T06:47:17.982Z,1014.42
2018-01-14T06:48:18.003Z,1014.45
2018-01-14T06:49:18.032Z,1014.42
2018-01-14T06:50:18.011Z,1014.44
2018-01-14T06:51:18.021Z,1014.4
2018-01-14T06:52:18.030Z,1014.38
2018-01-14T06:53:18.039Z,1014.45
2018-01-14T06:54:18.059Z,1014.49
2018-01-14T06:55:18.357Z,1014.49
2018-01-14T06:56:18.077Z,1014.46
2018-01-14T06:57:18.191Z,1014.48
2018-01-14T06:58:18.096Z,1014.52
2018-01-14T06:59:18.095Z,1014.49
2018-01-14T07:00:18.105Z,1014.49
2018-01-14T07:01:18.125Z,1014.51
2018-01-14T07:02:18.195Z,1014.49
2018-01-14T07:03:18.133Z,1014.47
2018-01-14T07:04:18.164Z,1014.52
2018-01-14T07:05:18.150Z,1014.48
2018-01-14T07:06:18.161Z,1014.53
2018-01-14T07:07:18.180Z,1014.52
2018-01-14T07:08:18.180Z,1014.55
2018-01-14T07:09:18.199Z,1014.53
2018-01-14T07:10:18.210Z,1014.58
2018-01-14T07:11:18.221Z,1014.55
2018-01-14T07:12:18.229Z,1014.58
2018-01-14T07:13:18.239Z,1014.53
2018-01-14T07:14:18.263Z,1014.56
2018-01-14T07:15:18.257Z,1014.58
2018-01-14T07:16:18.264Z,1014.57
2018-01-14T07:17:18.275Z,1014.6
2018-01-14T07:18:18.273Z,1014.6
2018-01-14T07:19:18.283Z,1014.59
2018-01-14T07:20:18.302Z,1014.62
2018-01-14T07:21:18.310Z,1014.63
2018-01-14T07:22:18.321Z,1014.61
2018-01-14T07:23:18.331Z,1014.59
2018-01-14T07:24:18.339Z,1014.57
2018-01-14T07:25:18.338Z,1014.63
2018-01-14T07:26:18.376Z,1014.6
2018-01-14T07:27:18.358Z,1014.59
2018-01-14T07:28:18.377Z,1014.58
2018-01-14T07:29:18.526Z,1014.59
2018-01-14T07:30:18.396Z,1014.58
2018-01-14T07:31:18.408Z,1014.57
2018-01-14T07:32:18.403Z,1014.57
2018-01-14T07:33:18.413Z,1014.57
2018-01-14T07:34:18.478Z,1014.55
2018-01-14T07:35:18.441Z,1014.59
2018-01-14T07:36:18.455Z,1014.57
2018-01-14T07:37:18.450Z,1014.57
2018-01-14T07:38:18.473Z,1014.52
2018-01-14T07:39:18.504Z,1014.52
2018-01-14T07:40:18.478Z,1014.5
2018-01-14T07:41:18.488Z,1014.55
2018-01-14T07:42:18.507Z,1014.52
2018-01-14T07:43:18.519Z,1014.53
2018-01-14T07:44:18.516Z,1014.56
2018-01-14T07:45:18.597Z,1014.54
2018-01-14T07:46:18.534Z,1014.56
2018-01-14T07:47:18.553Z,1014.53
2018-01-14T07:48:18.566Z,1014.48
2018-01-14T07:49:18.561Z,1014.43
2018-01-14T07:50:18.571Z,1014.44
2018-01-14T07:51:18.592Z,1014.48
2018-01-14T07:52:18.590Z,1014.43
2018-01-14T07:53:18.599Z,1014.46
2018-01-14T07:54:18.619Z,1014.46
2018-01-14T07:55:18.617Z,1014.44
2018-01-14T07:56:18.632Z,1014.43
2018-01-14T07:57:18.635Z,1014.39
2018-01-14T07:58:18.656Z,1014.44
2018-01-14T07:59:18.755Z,1014.54
2018-01-14T08:00:18.665Z,1014.51
2018-01-14T08:01:18.673Z,1014.53
2018-01-14T08:02:18.683Z,1014.55
2018-01-14T08:03:18.693Z,1014.56
2018-01-14T08:04:18.751Z,1014.56
2018-01-14T08:05:18.720Z,1014.64
2018-01-14T08:06:18.732Z,1014.59
2018-01-14T08:07:18.742Z,1014.57
2018-01-14T08:08:18.749Z,1014.59
2018-01-14T08:09:18.758Z,1014.57
2018-01-14T08:10:18.757Z,1014.52
2018-01-14T08:11:18.784Z,1014.53
2018-01-14T08:12:18.777Z,1014.56
2018-01-14T08:13:18.785Z,1014.55
2018-01-14T08:14:18.794Z,1014.55
2018-01-14T08:15:18.803Z,1014.6
2018-01-14T08:16:18.825Z,1014.56
2018-01-14T08:17:18.834Z,1014.53
2018-01-14T08:18:18.842Z,1014.56
2018-01-14T08:19:18.842Z,1014.56
2018-01-14T08:20:18.861Z,1014.55
2018-01-14T08:21:18.862Z,1014.54
2018-01-14T08:22:18.879Z,1014.55
2018-01-14T08:23:18.882Z,1014.51
2018-01-14T08:24:18.901Z,1014.57
2018-01-14T08:25:18.909Z,1014.57
2018-01-14T08:26:18.917Z,1014.6
2018-01-14T08:27:18.927Z,1014.62
2018-01-14T08:28:18.926Z,1014.66
2018-01-14T08:29:18.937Z,1014.61
2018-01-14T08:30:18.944Z,1014.64
2018-01-14T08:31:18.955Z,1014.65
2018-01-14T08:32:18.975Z,1014.64
2018-01-14T08:33:18.983Z,1014.64
2018-01-14T08:34:18.981Z,1014.64
2018-01-14T08:35:19.002Z,1014.67
2018-01-14T08:36:19.001Z,1014.7
2018-01-14T08:37:19.009Z,1014.71
2018-01-14T08:38:19.032Z,1014.72
2018-01-14T08:39:19.041Z,1014.71
2018-01-14T08:40:19.049Z,1014.74
2018-01-14T08:41:19.047Z,1014.69
2018-01-14T08:42:19.075Z,1014.71
2018-01-14T08:43:19.067Z,1014.69
2018-01-14T08:44:19.088Z,1014.73
2018-01-14T08:45:19.085Z,1014.75
2018-01-14T08:46:19.107Z,1014.73
2018-01-14T08:47:19.105Z,1014.73
2018-01-14T08:48:19.124Z,1014.74
2018-01-14T08:49:19.123Z,1014.72
2018-01-14T08:50:19.132Z,1014.72
2018-01-14T08:51:19.153Z,1014.74
2018-01-14T08:52:19.161Z,1014.72
2018-01-14T08:53:19.162Z,1014.72
2018-01-14T08:54:19.173Z,1014.75
2018-01-14T08:55:19.179Z,1014.74
2018-01-14T08:56:19.199Z,1014.73
2018-01-14T08:57:19.212Z,1014.69
2018-01-14T08:58:19.219Z,1014.74
2018-01-14T08:59:19.217Z,1014.74
2018-01-14T09:00:19.228Z,1014.73
2018-01-14T09:01:19.239Z,1014.71
2018-01-14T09:02:19.245Z,1014.74
2018-01-14T09:03:19.266Z,1014.75
2018-01-14T09:04:19.264Z,1014.73
2018-01-14T09:05:19.275Z,1014.78
2018-01-14T09:06:19.283Z,1014.78
2018-01-14T09:07:19.293Z,1014.8
2018-01-14T09:08:19.304Z,1014.78
2018-01-14T09:09:19.319Z,1014.79
2018-01-14T09:10:19.332Z,1014.82
2018-01-14T09:11:19.333Z,1014.8
2018-01-14T09:12:19.341Z,1014.81
2018-01-14T09:13:19.353Z,1014.82
2018-01-14T09:14:19.359Z,1014.77
2018-01-14T09:15:19.530Z,1014.82
2018-01-14T09:16:19.390Z,1014.79
2018-01-14T09:17:19.399Z,1014.81
2018-01-14T09:18:19.408Z,1014.76
2018-01-14T09:19:19.419Z,1014.73
2018-01-14T09:20:19.428Z,1014.77
2018-01-14T09:21:19.439Z,1014.79
2018-01-14T09:22:19.436Z,1014.74
2018-01-14T09:23:19.458Z,1014.72
2018-01-14T09:24:19.455Z,1014.75
2018-01-14T09:25:19.478Z,1014.7
2018-01-14T09:26:19.480Z,1014.73
2018-01-14T09:27:19.484Z,1014.77
2018-01-14T09:28:19.493Z,1014.79
2018-01-14T09:29:19.503Z,1014.78
2018-01-14T09:30:19.562Z,1014.79
2018-01-14T09:31:19.524Z,1014.77
2018-01-14T09:32:19.545Z,1014.75
2018-01-14T09:33:19.541Z,1014.71
2018-01-14T09:34:19.551Z,1014.71
2018-01-14T09:35:19.561Z,1014.73
2018-01-14T09:36:19.590Z,1014.71
2018-01-14T09:37:19.591Z,1014.74
2018-01-14T09:38:19.590Z,1014.77
2018-01-14T09:39:19.599Z,1014.75
2018-01-14T09:40:19.609Z,1014.72
2018-01-14T09:41:19.619Z,1014.7
2018-01-14T09:42:19.643Z,1014.71
2018-01-14T09:43:19.640Z,1014.66
2018-01-14T09:44:19.659Z,1014.64
2018-01-14T09:45:19.669Z,1014.62
2018-01-14T09:46:19.678Z,1014.61
2018-01-14T09:47:19.678Z,1014.59
2018-01-14T09:48:19.697Z,1014.62
2018-01-14T09:49:19.708Z,1014.63
2018-01-14T09:50:19.706Z,1014.57
2018-01-14T09:51:19.729Z,1014.58
2018-01-14T09:52:19.736Z,1014.49
2018-01-14T09:53:19.736Z,1014.54
2018-01-14T09:54:19.756Z,1014.56
2018-01-14T09:55:19.766Z,1014.57
2018-01-14T09:56:19.801Z,1014.57
2018-01-14T09:57:19.786Z,1014.6
2018-01-14T09:58:19.784Z,1014.63
2018-01-14T09:59:20.011Z,1014.61
2018-01-14T10:00:19.805Z,1014.57
2018-01-14T10:01:19.815Z,1014.61
2018-01-14T10:02:19.823Z,1014.57
2018-01-14T10:03:19.836Z,1014.58
2018-01-14T10:04:19.843Z,1014.56
2018-01-14T10:05:19.864Z,1014.58
2018-01-14T10:06:19.875Z,1014.59
2018-01-14T10:07:19.887Z,1014.61
2018-01-14T10:08:19.882Z,1014.54
2018-01-14T10:09:19.944Z,1014.57
2018-01-14T10:10:19.902Z,1014.59
2018-01-14T10:11:19.923Z,1014.54
2018-01-14T10:12:19.922Z,1014.56
2018-01-14T10:13:20.001Z,1014.59
2018-01-14T10:14:19.942Z,1014.57
2018-01-14T10:15:19.962Z,1014.56
2018-01-14T10:16:19.964Z,1014.54
2018-01-14T10:17:19.972Z,1014.56
2018-01-14T10:18:19.983Z,1014.51
2018-01-14T10:19:19.991Z,1014.55
2018-01-14T10:20:20.012Z,1014.58
2018-01-14T10:21:20.012Z,1014.54
2018-01-14T10:22:20.023Z,1014.51
2018-01-14T10:23:20.033Z,1014.49
2018-01-14T10:24:20.042Z,1014.46
2018-01-14T10:25:20.051Z,1014.43
2018-01-14T10:26:20.111Z,1014.42
2018-01-14T10:27:20.071Z,1014.47
2018-01-14T10:28:20.085Z,1014.51
2018-01-14T10:29:20.093Z,1014.49
2018-01-14T10:30:20.111Z,1014.45
2018-01-14T10:31:20.111Z,1014.46
2018-01-14T10:32:20.132Z,1014.48
2018-01-14T10:33:20.132Z,1014.43
2018-01-14T10:34:20.151Z,1014.43
2018-01-14T10:35:20.151Z,1014.46
2018-01-14T10:36:20.178Z,1014.45
2018-01-14T10:37:20.182Z,1014.45
2018-01-14T10:38:20.192Z,1014.41
2018-01-14T10:39:20.192Z,1014.41
2018-01-14T10:40:20.213Z,1014.43
2018-01-14T10:41:20.227Z,1014.38
2018-01-14T10:42:20.232Z,1014.34
2018-01-14T10:43:20.232Z,1014.35
2018-01-14T10:44:20.244Z,1014.35
2018-01-14T10:45:20.253Z,1014.35
2018-01-14T10:46:20.313Z,1014.37
2018-01-14T10:47:20.284Z,1014.33
2018-01-14T10:48:20.293Z,1014.3
2018-01-14T10:49:20.303Z,1014.33
2018-01-14T10:50:20.313Z,1014.31
2018-01-14T10:51:20.314Z,1014.29
2018-01-14T10:52:20.324Z,1014.3
2018-01-14T10:53:20.334Z,1014.29
2018-01-14T10:54:20.346Z,1014.25
2018-01-14T10:55:20.469Z,1014.27
2018-01-14T10:56:20.364Z,1014.27
2018-01-14T10:57:20.386Z,1014.28
2018-01-14T10:58:20.386Z,1014.27
2018-01-14T10:59:20.406Z,1014.28
2018-01-14T11:00:20.417Z,1014.2
2018-01-14T11:01:20.427Z,1014.24
2018-01-14T11:02:20.442Z,1014.2
2018-01-14T11:03:20.437Z,1014.2
2018-01-14T11:04:20.458Z,1014.2
2018-01-14T11:05:20.460Z,1014.21
2018-01-14T11:06:20.479Z,1014.22
2018-01-14T11:07:20.489Z,1014.14
2018-01-14T11:08:20.501Z,1014.15
2018-01-14T11:09:20.511Z,1014.11
2018-01-14T11:10:20.520Z,1014.13
2018-01-14T11:11:20.521Z,1014.14
2018-01-14T11:12:20.532Z,1014.11
2018-01-14T11:13:20.545Z,1014.16
2018-01-14T11:14:20.563Z,1014.06
2018-01-14T11:15:20.576Z,1014.09
2018-01-14T11:16:20.573Z,1014.05
2018-01-14T11:17:20.585Z,1014.03
2018-01-14T11:18:20.602Z,1014.03
2018-01-14T11:19:20.605Z,1014.01
2018-01-14T11:20:20.627Z,1014.02
2018-01-14T11:21:20.639Z,1014.02
2018-01-14T11:22:20.650Z,1014
2018-01-14T11:23:20.660Z,1013.99
2018-01-14T11:24:20.672Z,1013.98
2018-01-14T11:25:20.671Z,1013.96
2018-01-14T11:26:20.690Z,1014.06
2018-01-14T11:27:20.690Z,1014.03
2018-01-14T11:28:20.714Z,1014.04
2018-01-14T11:29:20.723Z,1013.99
2018-01-14T11:30:20.733Z,1014.03
2018-01-14T11:31:20.744Z,1013.99
2018-01-14T11:32:20.754Z,1014.01
2018-01-14T11:33:20.755Z,1014.02
2018-01-14T11:34:20.777Z,1013.98
2018-01-14T11:35:20.777Z,1014.03
2018-01-14T11:36:20.787Z,1013.99
2018-01-14T11:37:20.799Z,1014.01
2018-01-14T11:38:20.820Z,1014.03
2018-01-14T11:39:20.821Z,1013.99
2018-01-14T11:40:20.841Z,1013.94
2018-01-14T11:41:20.846Z,1013.93
2018-01-14T11:42:20.864Z,1013.92
2018-01-14T11:43:20.863Z,1013.95
2018-01-14T11:44:20.875Z,1013.98
2018-01-14T11:45:20.886Z,1013.94
2018-01-14T11:46:20.897Z,1013.93
2018-01-14T11:47:20.907Z,1013.92
2018-01-14T11:48:20.928Z,1013.91
2018-01-14T11:49:20.940Z,1013.87
2018-01-14T11:50:20.950Z,1013.81
2018-01-14T11:51:20.962Z,1013.85
2018-01-14T11:52:20.962Z,1013.8
2018-01-14T11:53:20.983Z,1013.82
2018-01-14T11:54:20.994Z,1013.79
2018-01-14T11:55:21.006Z,1013.79
2018-01-14T11:56:21.006Z,1013.78
2018-01-14T11:57:21.017Z,1013.81
2018-01-14T11:58:21.032Z,1013.79
2018-01-14T11:59:21.039Z,1013.8
2018-01-14T12:00:21.050Z,1013.79
2018-01-14T12:01:21.073Z,1013.83
2018-01-14T12:02:21.083Z,1013.77
2018-01-14T12:03:21.084Z,1013.82
2018-01-14T12:04:21.095Z,1013.81
2018-01-14T12:05:21.117Z,1013.84
2018-01-14T12:06:21.142Z,1013.77
2018-01-14T12:07:21.140Z,1013.79